Rouzerville, Pennsylvania
Current Conditions -  °F | °C
As of 10:53 AM on Sunday 21 Dec 2014 (Local Time) from KRYT Reporting Station
Scattered Clouds Scattered Clouds  
Wind Chill: 30°   Ceiling: Unl
Heat Index: 34°   Visibility: 10mi
Dew Point: 21°   Wind: 5mph
Humidity: 59%   Direction: NA
Pressure: 30.3"   Gusts: NA
Location:  39.73°N, 77.52°W
Report Text: KRYT 211553Z AUTO VRB04KT 10SM SCT029 01/M06 A3030 RMK AO2 SLP277 T00111061 $
Loading
Personal Weather Stations






























Interactive Weather Map New forecast layout! Learn more

10-Day Weather Forecast

Advertisements
Track Severe Weather on mobile